sensor_id;sensor_type;location;lat;lon;timestamp;temperature;humidity
32536;DHT22;18974;50.838;4.636;2023-04-29T00:01:15;13.90;99.90
32536;DHT22;18974;50.838;4.636;2023-04-29T00:03:41;14.00;99.90
32536;DHT22;18974;50.838;4.636;2023-04-29T00:06:07;13.90;99.90
32536;DHT22;18974;50.838;4.636;2023-04-29T00:08:32;13.70;99.90
32536;DHT22;18974;50.838;4.636;2023-04-29T00:10:58;13.60;99.90
32536;DHT22;18974;50.838;4.636;2023-04-29T00:13:24;13.60;99.90
32536;DHT22;18974;50.838;4.636;2023-04-29T00:15:51;13.50;99.90
32536;DHT22;18974;50.838;4.636;2023-04-29T00:18:17;13.50;99.90
32536;DHT22;18974;50.838;4.636;2023-04-29T00:20:43;13.50;99.90
32536;DHT22;18974;50.838;4.636;2023-04-29T00:23:08;13.30;99.90
32536;DHT22;18974;50.838;4.636;2023-04-29T00:25:34;13.20;99.90
32536;DHT22;18974;50.838;4.636;2023-04-29T00:28:00;13.20;99.90
32536;DHT22;18974;50.838;4.636;2023-04-29T00:30:30;13.10;99.90
32536;DHT22;18974;50.838;4.636;2023-04-29T00:32:57;13.20;99.90
32536;DHT22;18974;50.838;4.636;2023-04-29T00:35:22;13.00;99.90
32536;DHT22;18974;50.838;4.636;2023-04-29T00:37:48;13.00;99.90
32536;DHT22;18974;50.838;4.636;2023-04-29T00:40:14;13.00;99.90
32536;DHT22;18974;50.838;4.636;2023-04-29T00:42:41;13.00;99.90
32536;DHT22;18974;50.838;4.636;2023-04-29T00:45:07;13.00;99.90
32536;DHT22;18974;50.838;4.636;2023-04-29T00:47:33;13.00;99.90
32536;DHT22;18974;50.838;4.636;2023-04-29T00:49:59;13.00;99.90
32536;DHT22;18974;50.838;4.636;2023-04-29T00:52:27;13.00;99.90
32536;DHT22;18974;50.838;4.636;2023-04-29T00:54:55;13.10;99.90
32536;DHT22;18974;50.838;4.636;2023-04-29T00:57:21;13.10;99.90
32536;DHT22;18974;50.838;4.636;2023-04-29T00:59:48;13.00;99.90
32536;DHT22;18974;50.838;4.636;2023-04-29T01:02:14;12.90;99.90
32536;DHT22;18974;50.838;4.636;2023-04-29T01:04:42;13.00;99.90
32536;DHT22;18974;50.838;4.636;2023-04-29T01:10:08;13.10;99.90
32536;DHT22;18974;50.838;4.636;2023-04-29T01:17:36;13.00;99.90
32536;DHT22;18974;50.838;4.636;2023-04-29T01:20:03;12.90;99.90
32536;DHT22;18974;50.838;4.636;2023-04-29T01:22:31;12.80;99.90
32536;DHT22;18974;50.838;4.636;2023-04-29T01:24:56;12.80;99.90
32536;DHT22;18974;50.838;4.636;2023-04-29T01:27:45;12.90;99.90
32536;DHT22;18974;50.838;4.636;2023-04-29T01:30:27;12.90;99.90
32536;DHT22;18974;50.838;4.636;2023-04-29T01:36:26;12.80;99.90
32536;DHT22;18974;50.838;4.636;2023-04-29T01:41:56;12.80;99.90
32536;DHT22;18974;50.838;4.636;2023-04-29T01:44:26;12.80;99.90
32536;DHT22;18974;50.838;4.636;2023-04-29T01:46:54;12.70;99.90
32536;DHT22;18974;50.838;4.636;2023-04-29T01:49:24;12.70;99.90
32536;DHT22;18974;50.838;4.636;2023-04-29T01:51:50;12.70;99.90
32536;DHT22;18974;50.838;4.636;2023-04-29T01:54:15;12.60;99.90
32536;DHT22;18974;50.838;4.636;2023-04-29T01:56:42;12.60;99.90
32536;DHT22;18974;50.838;4.636;2023-04-29T01:59:07;12.70;99.90
32536;DHT22;18974;50.838;4.636;2023-04-29T02:01:33;12.70;99.90
32536;DHT22;18974;50.838;4.636;2023-04-29T02:03:59;12.70;99.90
32536;DHT22;18974;50.838;4.636;2023-04-29T02:06:25;12.60;99.90
32536;DHT22;18974;50.838;4.636;2023-04-29T02:08:51;12.60;99.90
32536;DHT22;18974;50.838;4.636;2023-04-29T02:11:16;12.50;99.90
32536;DHT22;18974;50.838;4.636;2023-04-29T02:13:42;12.40;99.90
32536;DHT22;18974;50.838;4.636;2023-04-29T02:16:13;12.40;99.90
32536;DHT22;18974;50.838;4.636;2023-04-29T02:18:38;12.30;99.90
32536;DHT22;18974;50.838;4.636;2023-04-29T02:21:05;12.30;99.90
32536;DHT22;18974;50.838;4.636;2023-04-29T02:23:31;12.20;99.90
32536;DHT22;18974;50.838;4.636;2023-04-29T02:25:57;12.20;99.90
32536;DHT22;18974;50.838;4.636;2023-04-29T02:28:22;12.20;99.90
32536;DHT22;18974;50.838;4.636;2023-04-29T02:30:48;12.20;99.90
32536;DHT22;18974;50.838;4.636;2023-04-29T02:33:14;12.20;99.90
32536;DHT22;18974;50.838;4.636;2023-04-29T02:35:40;12.30;99.90
32536;DHT22;18974;50.838;4.636;2023-04-29T02:38:06;12.20;99.90
32536;DHT22;18974;50.838;4.636;2023-04-29T02:40:32;12.10;99.90
32536;DHT22;18974;50.838;4.636;2023-04-29T02:42:58;12.20;99.90
32536;DHT22;18974;50.838;4.636;2023-04-29T02:45:24;12.20;99.90
32536;DHT22;18974;50.838;4.636;2023-04-29T02:47:49;12.20;99.90
32536;DHT22;18974;50.838;4.636;2023-04-29T02:50:15;12.30;99.90
32536;DHT22;18974;50.838;4.636;2023-04-29T02:52:41;12.30;99.90
32536;DHT22;18974;50.838;4.636;2023-04-29T02:55:07;12.30;99.90
32536;DHT22;18974;50.838;4.636;2023-04-29T02:57:33;12.30;99.90
32536;DHT22;18974;50.838;4.636;2023-04-29T02:59:59;12.20;99.90
32536;DHT22;18974;50.838;4.636;2023-04-29T03:02:25;12.20;99.90
32536;DHT22;18974;50.838;4.636;2023-04-29T03:04:50;12.20;99.90
32536;DHT22;18974;50.838;4.636;2023-04-29T03:07:17;12.10;99.90
32536;DHT22;18974;50.838;4.636;2023-04-29T03:09:42;12.20;99.90
32536;DHT22;18974;50.838;4.636;2023-04-29T03:12:08;12.20;99.90
32536;DHT22;18974;50.838;4.636;2023-04-29T03:14:34;12.30;99.90
32536;DHT22;18974;50.838;4.636;2023-04-29T03:17:00;12.30;99.90
32536;DHT22;18974;50.838;4.636;2023-04-29T03:19:26;12.30;99.90
32536;DHT22;18974;50.838;4.636;2023-04-29T03:21:52;12.20;99.90
32536;DHT22;18974;50.838;4.636;2023-04-29T03:24:17;12.20;99.90
32536;DHT22;18974;50.838;4.636;2023-04-29T03:26:43;12.20;99.90
32536;DHT22;18974;50.838;4.636;2023-04-29T03:29:09;12.20;99.90
32536;DHT22;18974;50.838;4.636;2023-04-29T03:31:35;12.20;99.90
32536;DHT22;18974;50.838;4.636;2023-04-29T03:34:01;12.20;99.90
32536;DHT22;18974;50.838;4.636;2023-04-29T03:36:26;12.20;99.90
32536;DHT22;18974;50.838;4.636;2023-04-29T03:38:52;12.10;99.90
32536;DHT22;18974;50.838;4.636;2023-04-29T03:41:18;12.10;99.90
32536;DHT22;18974;50.838;4.636;2023-04-29T03:43:43;12.10;99.90
32536;DHT22;18974;50.838;4.636;2023-04-29T03:46:09;12.10;99.90
32536;DHT22;18974;50.838;4.636;2023-04-29T03:48:35;12.10;99.90
32536;DHT22;18974;50.838;4.636;2023-04-29T03:51:02;12.00;99.90
32536;DHT22;18974;50.838;4.636;2023-04-29T03:53:28;12.10;99.90
32536;DHT22;18974;50.838;4.636;2023-04-29T03:55:54;12.10;99.90
32536;DHT22;18974;50.838;4.636;2023-04-29T03:58:20;12.00;99.90
32536;DHT22;18974;50.838;4.636;2023-04-29T04:00:46;12.10;99.90
32536;DHT22;18974;50.838;4.636;2023-04-29T04:03:11;12.10;99.90
32536;DHT22;18974;50.838;4.636;2023-04-29T04:05:37;12.10;99.90
32536;DHT22;18974;50.838;4.636;2023-04-29T04:08:03;12.10;99.90
32536;DHT22;18974;50.838;4.636;2023-04-29T04:10:29;12.10;99.90
32536;DHT22;18974;50.838;4.636;2023-04-29T04:12:54;12.10;99.90
32536;DHT22;18974;50.838;4.636;2023-04-29T04:15:20;12.20;99.90
32536;DHT22;18974;50.838;4.636;2023-04-29T04:17:46;12.20;99.90
32536;DHT22;18974;50.838;4.636;2023-04-29T04:20:12;12.20;99.90
32536;DHT22;18974;50.838;4.636;2023-04-29T04:22:38;12.10;99.90
32536;DHT22;18974;50.838;4.636;2023-04-29T04:25:04;12.10;99.90
32536;DHT22;18974;50.838;4.636;2023-04-29T04:27:30;12.10;99.90
32536;DHT22;18974;50.838;4.636;2023-04-29T04:29:55;12.00;99.90
32536;DHT22;18974;50.838;4.636;2023-04-29T04:32:22;12.10;99.90
32536;DHT22;18974;50.838;4.636;2023-04-29T04:34:48;12.10;99.90
32536;DHT22;18974;50.838;4.636;2023-04-29T04:37:14;12.10;99.90
32536;DHT22;18974;50.838;4.636;2023-04-29T04:39:40;12.10;99.90
32536;DHT22;18974;50.838;4.636;2023-04-29T04:42:06;12.10;99.90
32536;DHT22;18974;50.838;4.636;2023-04-29T04:44:32;12.20;99.90
32536;DHT22;18974;50.838;4.636;2023-04-29T04:46:58;12.10;99.90
32536;DHT22;18974;50.838;4.636;2023-04-29T04:49:26;12.20;99.90
32536;DHT22;18974;50.838;4.636;2023-04-29T04:51:52;12.30;99.90
32536;DHT22;18974;50.838;4.636;2023-04-29T04:54:18;12.20;99.90
32536;DHT22;18974;50.838;4.636;2023-04-29T04:56:44;12.20;99.90
32536;DHT22;18974;50.838;4.636;2023-04-29T04:59:09;12.20;99.90
32536;DHT22;18974;50.838;4.636;2023-04-29T05:01:35;12.20;99.90
32536;DHT22;18974;50.838;4.636;2023-04-29T05:04:01;12.20;99.90
32536;DHT22;18974;50.838;4.636;2023-04-29T05:06:27;12.20;99.90
32536;DHT22;18974;50.838;4.636;2023-04-29T05:08:53;12.20;99.90
32536;DHT22;18974;50.838;4.636;2023-04-29T05:11:20;12.20;99.90
32536;DHT22;18974;50.838;4.636;2023-04-29T05:13:46;12.20;99.90
32536;DHT22;18974;50.838;4.636;2023-04-29T05:16:12;12.20;99.90
32536;DHT22;18974;50.838;4.636;2023-04-29T05:18:38;12.20;99.90
32536;DHT22;18974;50.838;4.636;2023-04-29T05:21:04;12.20;99.90
32536;DHT22;18974;50.838;4.636;2023-04-29T05:23:30;12.20;99.90
32536;DHT22;18974;50.838;4.636;2023-04-29T05:25:56;12.20;99.90
32536;DHT22;18974;50.838;4.636;2023-04-29T05:28:21;12.30;99.90
32536;DHT22;18974;50.838;4.636;2023-04-29T05:30:50;12.20;99.90
32536;DHT22;18974;50.838;4.636;2023-04-29T05:33:16;12.30;99.90
32536;DHT22;18974;50.838;4.636;2023-04-29T05:35:41;12.20;99.90
32536;DHT22;18974;50.838;4.636;2023-04-29T05:38:07;12.30;99.90
32536;DHT22;18974;50.838;4.636;2023-04-29T05:40:33;12.20;99.90
32536;DHT22;18974;50.838;4.636;2023-04-29T05:42:59;12.20;99.90
32536;DHT22;18974;50.838;4.636;2023-04-29T05:45:24;12.20;99.90
32536;DHT22;18974;50.838;4.636;2023-04-29T05:47:50;12.20;99.90
32536;DHT22;18974;50.838;4.636;2023-04-29T05:50:16;12.20;99.90
32536;DHT22;18974;50.838;4.636;2023-04-29T05:52:41;12.30;99.90
32536;DHT22;18974;50.838;4.636;2023-04-29T05:55:07;12.30;99.90
32536;DHT22;18974;50.838;4.636;2023-04-29T05:57:33;12.40;99.90
32536;DHT22;18974;50.838;4.636;2023-04-29T05:59:59;12.40;99.90
32536;DHT22;18974;50.838;4.636;2023-04-29T06:02:25;12.40;99.90
32536;DHT22;18974;50.838;4.636;2023-04-29T06:04:51;12.40;99.90
32536;DHT22;18974;50.838;4.636;2023-04-29T06:07:17;12.30;99.90
32536;DHT22;18974;50.838;4.636;2023-04-29T06:09:43;12.40;99.90
32536;DHT22;18974;50.838;4.636;2023-04-29T06:12:09;12.40;99.90
32536;DHT22;18974;50.838;4.636;2023-04-29T06:14:35;12.30;99.90
32536;DHT22;18974;50.838;4.636;2023-04-29T06:17:01;12.40;99.90
32536;DHT22;18974;50.838;4.636;2023-04-29T06:19:27;12.40;99.90
32536;DHT22;18974;50.838;4.636;2023-04-29T06:21:52;12.50;99.90
32536;DHT22;18974;50.838;4.636;2023-04-29T06:24:18;12.50;99.90
32536;DHT22;18974;50.838;4.636;2023-04-29T06:26:44;12.60;99.90
32536;DHT22;18974;50.838;4.636;2023-04-29T06:29:10;12.60;99.90
32536;DHT22;18974;50.838;4.636;2023-04-29T06:31:35;12.60;99.90
32536;DHT22;18974;50.838;4.636;2023-04-29T06:34:01;12.60;99.90
32536;DHT22;18974;50.838;4.636;2023-04-29T06:36:27;12.60;99.90
32536;DHT22;18974;50.838;4.636;2023-04-29T06:38:52;12.70;99.90
32536;DHT22;18974;50.838;4.636;2023-04-29T06:41:18;12.70;99.90
32536;DHT22;18974;50.838;4.636;2023-04-29T06:43:44;12.60;99.90
32536;DHT22;18974;50.838;4.636;2023-04-29T06:46:10;12.70;99.90
32536;DHT22;18974;50.838;4.636;2023-04-29T06:48:37;12.60;99.90
32536;DHT22;18974;50.838;4.636;2023-04-29T06:51:03;12.50;99.90
32536;DHT22;18974;50.838;4.636;2023-04-29T06:53:29;12.50;99.90
32536;DHT22;18974;50.838;4.636;2023-04-29T06:55:55;12.60;99.90
32536;DHT22;18974;50.838;4.636;2023-04-29T06:58:20;12.60;99.90
32536;DHT22;18974;50.838;4.636;2023-04-29T07:00:48;12.60;99.90
32536;DHT22;18974;50.838;4.636;2023-04-29T07:03:15;12.60;99.90
32536;DHT22;18974;50.838;4.636;2023-04-29T07:05:42;12.50;99.90
32536;DHT22;18974;50.838;4.636;2023-04-29T07:08:10;12.50;99.90
32536;DHT22;18974;50.838;4.636;2023-04-29T07:10:37;12.50;99.90
32536;DHT22;18974;50.838;4.636;2023-04-29T07:13:03;12.40;99.90
32536;DHT22;18974;50.838;4.636;2023-04-29T07:15:29;12.60;99.90
32536;DHT22;18974;50.838;4.636;2023-04-29T07:17:55;12.60;99.90
32536;DHT22;18974;50.838;4.636;2023-04-29T07:20:22;12.60;99.90
32536;DHT22;18974;50.838;4.636;2023-04-29T07:22:47;12.50;99.90
32536;DHT22;18974;50.838;4.636;2023-04-29T07:25:13;12.60;99.90
32536;DHT22;18974;50.838;4.636;2023-04-29T07:27:39;12.60;99.90
32536;DHT22;18974;50.838;4.636;2023-04-29T07:30:05;12.60;99.90
32536;DHT22;18974;50.838;4.636;2023-04-29T07:32:31;12.60;99.90
32536;DHT22;18974;50.838;4.636;2023-04-29T07:34:58;12.50;99.90
32536;DHT22;18974;50.838;4.636;2023-04-29T07:37:24;12.50;99.90
32536;DHT22;18974;50.838;4.636;2023-04-29T07:39:50;12.50;99.90
32536;DHT22;18974;50.838;4.636;2023-04-29T07:42:16;12.40;99.90
32536;DHT22;18974;50.838;4.636;2023-04-29T07:44:42;12.40;99.90
32536;DHT22;18974;50.838;4.636;2023-04-29T07:47:10;12.30;99.90
32536;DHT22;18974;50.838;4.636;2023-04-29T07:49:35;12.30;99.90
32536;DHT22;18974;50.838;4.636;2023-04-29T07:52:03;12.30;99.90
32536;DHT22;18974;50.838;4.636;2023-04-29T07:54:28;12.30;99.90
32536;DHT22;18974;50.838;4.636;2023-04-29T07:56:57;12.40;99.90
32536;DHT22;18974;50.838;4.636;2023-04-29T07:59:22;12.50;99.90
32536;DHT22;18974;50.838;4.636;2023-04-29T08:01:48;12.50;99.90
32536;DHT22;18974;50.838;4.636;2023-04-29T08:04:14;12.60;99.90
32536;DHT22;18974;50.838;4.636;2023-04-29T08:06:39;12.80;99.90
32536;DHT22;18974;50.838;4.636;2023-04-29T08:09:06;13.00;99.90
32536;DHT22;18974;50.838;4.636;2023-04-29T08:11:32;13.00;99.90
32536;DHT22;18974;50.838;4.636;2023-04-29T08:13:58;13.00;99.90
32536;DHT22;18974;50.838;4.636;2023-04-29T08:16:25;13.20;99.90
32536;DHT22;18974;50.838;4.636;2023-04-29T08:18:51;13.20;99.90
32536;DHT22;18974;50.838;4.636;2023-04-29T08:21:17;13.40;99.90
32536;DHT22;18974;50.838;4.636;2023-04-29T08:23:43;13.50;99.90
32536;DHT22;18974;50.838;4.636;2023-04-29T08:26:10;13.70;99.90
32536;DHT22;18974;50.838;4.636;2023-04-29T08:28:38;14.00;99.90
32536;DHT22;18974;50.838;4.636;2023-04-29T08:31:04;14.20;99.90
32536;DHT22;18974;50.838;4.636;2023-04-29T08:33:33;14.30;99.90
32536;DHT22;18974;50.838;4.636;2023-04-29T08:35:59;14.30;99.90
32536;DHT22;18974;50.838;4.636;2023-04-29T08:38:28;14.30;99.90
32536;DHT22;18974;50.838;4.636;2023-04-29T08:40:54;14.20;99.90
32536;DHT22;18974;50.838;4.636;2023-04-29T08:43:21;14.10;99.90
32536;DHT22;18974;50.838;4.636;2023-04-29T08:45:50;14.10;99.90
32536;DHT22;18974;50.838;4.636;2023-04-29T08:48:16;14.20;99.90
32536;DHT22;18974;50.838;4.636;2023-04-29T08:50:43;14.30;99.90
32536;DHT22;18974;50.838;4.636;2023-04-29T08:53:10;14.40;99.90
32536;DHT22;18974;50.838;4.636;2023-04-29T08:55:46;14.30;99.90
32536;DHT22;18974;50.838;4.636;2023-04-29T08:58:14;14.20;99.90
32536;DHT22;18974;50.838;4.636;2023-04-29T09:00:42;14.10;99.90
32536;DHT22;18974;50.838;4.636;2023-04-29T09:03:26;13.90;99.90
32536;DHT22;18974;50.838;4.636;2023-04-29T09:05:53;13.90;99.90
32536;DHT22;18974;50.838;4.636;2023-04-29T09:08:23;14.00;99.90
32536;DHT22;18974;50.838;4.636;2023-04-29T09:10:50;14.00;99.90
32536;DHT22;18974;50.838;4.636;2023-04-29T09:15:49;14.10;99.90
32536;DHT22;18974;50.838;4.636;2023-04-29T09:23:43;14.00;99.90
32536;DHT22;18974;50.838;4.636;2023-04-29T09:26:08;14.00;99.90
32536;DHT22;18974;50.838;4.636;2023-04-29T09:28:34;14.00;99.90
32536;DHT22;18974;50.838;4.636;2023-04-29T09:31:03;14.30;99.90
32536;DHT22;18974;50.838;4.636;2023-04-29T09:33:31;14.60;99.90
32536;DHT22;18974;50.838;4.636;2023-04-29T09:35:57;15.00;99.90
32536;DHT22;18974;50.838;4.636;2023-04-29T09:38:23;15.30;99.90
32536;DHT22;18974;50.838;4.636;2023-04-29T09:40:49;15.60;99.90
32536;DHT22;18974;50.838;4.636;2023-04-29T09:43:16;15.90;99.90
32536;DHT22;18974;50.838;4.636;2023-04-29T09:45:45;16.10;99.90
32536;DHT22;18974;50.838;4.636;2023-04-29T09:48:11;16.20;99.90
32536;DHT22;18974;50.838;4.636;2023-04-29T09:50:39;16.40;99.90
32536;DHT22;18974;50.838;4.636;2023-04-29T09:53:06;16.50;99.90
32536;DHT22;18974;50.838;4.636;2023-04-29T09:55:36;16.70;99.90
32536;DHT22;18974;50.838;4.636;2023-04-29T09:58:02;16.70;99.90
32536;DHT22;18974;50.838;4.636;2023-04-29T10:00:32;16.80;99.90
32536;DHT22;18974;50.838;4.636;2023-04-29T10:03:02;16.80;99.90
32536;DHT22;18974;50.838;4.636;2023-04-29T10:05:28;16.90;99.90
32536;DHT22;18974;50.838;4.636;2023-04-29T10:07:57;16.60;99.90
32536;DHT22;18974;50.838;4.636;2023-04-29T10:10:25;16.50;99.90
32536;DHT22;18974;50.838;4.636;2023-04-29T10:12:52;16.50;99.90
32536;DHT22;18974;50.838;4.636;2023-04-29T10:17:58;16.90;99.90
32536;DHT22;18974;50.838;4.636;2023-04-29T10:20:24;17.00;99.90
32536;DHT22;18974;50.838;4.636;2023-04-29T10:22:52;17.30;99.90
32536;DHT22;18974;50.838;4.636;2023-04-29T10:25:20;17.60;99.90
32536;DHT22;18974;50.838;4.636;2023-04-29T10:27:47;17.80;99.90
32536;DHT22;18974;50.838;4.636;2023-04-29T10:30:17;17.70;99.90
32536;DHT22;18974;50.838;4.636;2023-04-29T10:32:44;17.80;99.90
32536;DHT22;18974;50.838;4.636;2023-04-29T10:35:12;17.80;99.90
32536;DHT22;18974;50.838;4.636;2023-04-29T10:37:40;17.60;99.90
32536;DHT22;18974;50.838;4.636;2023-04-29T10:42:52;17.10;99.90
32536;DHT22;18974;50.838;4.636;2023-04-29T10:45:22;17.00;99.90
32536;DHT22;18974;50.838;4.636;2023-04-29T10:48:09;16.90;99.90
32536;DHT22;18974;50.838;4.636;2023-04-29T10:53:18;16.80;99.90
32536;DHT22;18974;50.838;4.636;2023-04-29T10:55:58;16.70;99.90
32536;DHT22;18974;50.838;4.636;2023-04-29T10:58:44;16.70;99.90
32536;DHT22;18974;50.838;4.636;2023-04-29T11:01:15;16.60;99.90
32536;DHT22;18974;50.838;4.636;2023-04-29T11:04:01;16.50;99.90
32536;DHT22;18974;50.838;4.636;2023-04-29T11:11:39;16.40;99.90
32536;DHT22;18974;50.838;4.636;2023-04-29T11:14:11;16.40;99.90
32536;DHT22;18974;50.838;4.636;2023-04-29T11:16:37;16.40;99.90
32536;DHT22;18974;50.838;4.636;2023-04-29T11:19:15;16.50;99.90
32536;DHT22;18974;50.838;4.636;2023-04-29T11:21:44;16.30;99.90
32536;DHT22;18974;50.838;4.636;2023-04-29T11:24:10;16.50;99.90
32536;DHT22;18974;50.838;4.636;2023-04-29T11:26:37;16.90;99.90
32536;DHT22;18974;50.838;4.636;2023-04-29T11:29:04;17.20;99.90
32536;DHT22;18974;50.838;4.636;2023-04-29T11:31:30;17.20;99.90
32536;DHT22;18974;50.838;4.636;2023-04-29T11:33:57;17.20;99.90
32536;DHT22;18974;50.838;4.636;2023-04-29T11:36:23;17.40;99.90
32536;DHT22;18974;50.838;4.636;2023-04-29T11:38:49;17.40;99.90
32536;DHT22;18974;50.838;4.636;2023-04-29T11:41:14;17.40;99.90
32536;DHT22;18974;50.838;4.636;2023-04-29T11:43:40;17.70;99.90
32536;DHT22;18974;50.838;4.636;2023-04-29T11:46:13;17.50;99.90
32536;DHT22;18974;50.838;4.636;2023-04-29T11:48:46;17.60;99.90
32536;DHT22;18974;50.838;4.636;2023-04-29T11:51:13;17.60;99.90
32536;DHT22;18974;50.838;4.636;2023-04-29T11:53:39;17.60;99.90
32536;DHT22;18974;50.838;4.636;2023-04-29T11:56:05;17.70;99.90
32536;DHT22;18974;50.838;4.636;2023-04-29T11:58:31;17.80;99.90
32536;DHT22;18974;50.838;4.636;2023-04-29T12:01:00;18.00;99.90
32536;DHT22;18974;50.838;4.636;2023-04-29T12:03:26;18.20;99.90
32536;DHT22;18974;50.838;4.636;2023-04-29T12:05:54;18.40;99.90
32536;DHT22;18974;50.838;4.636;2023-04-29T12:08:26;18.20;99.90
32536;DHT22;18974;50.838;4.636;2023-04-29T12:10:57;18.30;99.90
32536;DHT22;18974;50.838;4.636;2023-04-29T12:13:27;18.50;99.90
32536;DHT22;18974;50.838;4.636;2023-04-29T12:15:53;18.80;99.90
32536;DHT22;18974;50.838;4.636;2023-04-29T12:18:19;19.00;99.90
32536;DHT22;18974;50.838;4.636;2023-04-29T12:20:50;19.20;99.90
32536;DHT22;18974;50.838;4.636;2023-04-29T12:23:17;19.50;99.90
32536;DHT22;18974;50.838;4.636;2023-04-29T12:25:53;19.50;99.90
32536;DHT22;18974;50.838;4.636;2023-04-29T12:28:20;19.70;99.90
32536;DHT22;18974;50.838;4.636;2023-04-29T12:30:47;19.80;99.90
32536;DHT22;18974;50.838;4.636;2023-04-29T12:33:20;20.00;99.90
32536;DHT22;18974;50.838;4.636;2023-04-29T12:35:50;19.70;99.90
32536;DHT22;18974;50.838;4.636;2023-04-29T12:38:28;19.60;99.90
32536;DHT22;18974;50.838;4.636;2023-04-29T12:40:54;19.60;99.90
32536;DHT22;18974;50.838;4.636;2023-04-29T12:43:27;19.60;99.90
32536;DHT22;18974;50.838;4.636;2023-04-29T12:46:06;19.50;99.90
32536;DHT22;18974;50.838;4.636;2023-04-29T12:48:35;19.30;99.90
32536;DHT22;18974;50.838;4.636;2023-04-29T12:51:11;19.10;99.90
32536;DHT22;18974;50.838;4.636;2023-04-29T12:53:37;19.10;99.90
32536;DHT22;18974;50.838;4.636;2023-04-29T12:56:04;18.80;99.90
32536;DHT22;18974;50.838;4.636;2023-04-29T12:58:30;18.50;99.90
32536;DHT22;18974;50.838;4.636;2023-04-29T13:00:57;18.40;99.90
32536;DHT22;18974;50.838;4.636;2023-04-29T13:03:23;18.30;99.90
32536;DHT22;18974;50.838;4.636;2023-04-29T13:05:49;18.30;99.90
32536;DHT22;18974;50.838;4.636;2023-04-29T13:08:18;18.40;99.90
32536;DHT22;18974;50.838;4.636;2023-04-29T13:10:44;18.40;99.90
32536;DHT22;18974;50.838;4.636;2023-04-29T13:13:09;18.40;99.90
32536;DHT22;18974;50.838;4.636;2023-04-29T13:15:36;18.40;99.90
32536;DHT22;18974;50.838;4.636;2023-04-29T13:18:04;18.30;99.90
32536;DHT22;18974;50.838;4.636;2023-04-29T13:20:32;18.30;99.90
32536;DHT22;18974;50.838;4.636;2023-04-29T13:22:58;18.20;99.90
32536;DHT22;18974;50.838;4.636;2023-04-29T13:25:24;18.30;99.90
32536;DHT22;18974;50.838;4.636;2023-04-29T13:27:49;18.00;99.90
32536;DHT22;18974;50.838;4.636;2023-04-29T13:30:15;18.00;99.90
32536;DHT22;18974;50.838;4.636;2023-04-29T13:32:41;18.10;99.90
32536;DHT22;18974;50.838;4.636;2023-04-29T13:35:07;18.10;99.90
32536;DHT22;18974;50.838;4.636;2023-04-29T13:37:33;18.00;99.90
32536;DHT22;18974;50.838;4.636;2023-04-29T13:39:59;17.90;99.90
32536;DHT22;18974;50.838;4.636;2023-04-29T13:42:24;17.90;99.90
32536;DHT22;18974;50.838;4.636;2023-04-29T13:44:51;17.90;99.90
32536;DHT22;18974;50.838;4.636;2023-04-29T13:47:18;17.70;99.90
32536;DHT22;18974;50.838;4.636;2023-04-29T13:49:44;17.60;99.90
32536;DHT22;18974;50.838;4.636;2023-04-29T13:52:11;17.60;99.90
32536;DHT22;18974;50.838;4.636;2023-04-29T13:54:37;17.60;99.90
32536;DHT22;18974;50.838;4.636;2023-04-29T13:57:03;17.70;99.90
32536;DHT22;18974;50.838;4.636;2023-04-29T13:59:33;17.70;99.90
32536;DHT22;18974;50.838;4.636;2023-04-29T14:01:59;17.90;99.90
32536;DHT22;18974;50.838;4.636;2023-04-29T14:04:26;18.00;99.90
32536;DHT22;18974;50.838;4.636;2023-04-29T14:06:53;17.90;99.90
32536;DHT22;18974;50.838;4.636;2023-04-29T14:09:19;17.80;99.90
32536;DHT22;18974;50.838;4.636;2023-04-29T14:11:46;18.00;99.90
32536;DHT22;18974;50.838;4.636;2023-04-29T14:14:12;18.20;99.90
32536;DHT22;18974;50.838;4.636;2023-04-29T14:16:38;18.40;99.90
32536;DHT22;18974;50.838;4.636;2023-04-29T14:19:04;18.70;99.90
32536;DHT22;18974;50.838;4.636;2023-04-29T14:21:30;18.70;99.90
32536;DHT22;18974;50.838;4.636;2023-04-29T14:23:58;18.90;99.90
32536;DHT22;18974;50.838;4.636;2023-04-29T14:26:24;19.00;99.90
32536;DHT22;18974;50.838;4.636;2023-04-29T14:28:51;19.20;99.90
32536;DHT22;18974;50.838;4.636;2023-04-29T14:31:23;19.30;99.90
32536;DHT22;18974;50.838;4.636;2023-04-29T14:33:51;19.20;99.90
32536;DHT22;18974;50.838;4.636;2023-04-29T14:36:16;19.30;99.90
32536;DHT22;18974;50.838;4.636;2023-04-29T14:38:42;19.30;99.90
32536;DHT22;18974;50.838;4.636;2023-04-29T14:41:08;19.10;99.90
32536;DHT22;18974;50.838;4.636;2023-04-29T14:43:34;19.00;99.90
32536;DHT22;18974;50.838;4.636;2023-04-29T14:46:00;18.90;99.90
32536;DHT22;18974;50.838;4.636;2023-04-29T14:48:26;18.90;99.90
32536;DHT22;18974;50.838;4.636;2023-04-29T14:50:51;18.90;99.90
32536;DHT22;18974;50.838;4.636;2023-04-29T14:53:17;18.80;99.90
32536;DHT22;18974;50.838;4.636;2023-04-29T14:55:43;18.70;99.90
32536;DHT22;18974;50.838;4.636;2023-04-29T14:58:08;18.60;99.90
32536;DHT22;18974;50.838;4.636;2023-04-29T15:00:34;18.70;99.90
32536;DHT22;18974;50.838;4.636;2023-04-29T15:03:01;18.70;99.90
32536;DHT22;18974;50.838;4.636;2023-04-29T15:05:26;18.70;99.90
32536;DHT22;18974;50.838;4.636;2023-04-29T15:07:57;18.90;99.90
32536;DHT22;18974;50.838;4.636;2023-04-29T15:10:24;19.10;99.90
32536;DHT22;18974;50.838;4.636;2023-04-29T15:12:50;19.10;99.90
32536;DHT22;18974;50.838;4.636;2023-04-29T15:15:18;19.10;99.90
32536;DHT22;18974;50.838;4.636;2023-04-29T15:17:44;19.10;99.90
32536;DHT22;18974;50.838;4.636;2023-04-29T15:20:10;19.10;99.90
32536;DHT22;18974;50.838;4.636;2023-04-29T15:22:35;19.10;99.90
32536;DHT22;18974;50.838;4.636;2023-04-29T15:25:01;19.20;99.90
32536;DHT22;18974;50.838;4.636;2023-04-29T15:27:27;19.40;99.90
32536;DHT22;18974;50.838;4.636;2023-04-29T15:29:53;19.40;99.90
32536;DHT22;18974;50.838;4.636;2023-04-29T15:32:22;19.60;99.90
32536;DHT22;18974;50.838;4.636;2023-04-29T15:34:49;19.60;99.90
32536;DHT22;18974;50.838;4.636;2023-04-29T15:37:15;19.60;99.90
32536;DHT22;18974;50.838;4.636;2023-04-29T15:39:40;19.50;99.90
32536;DHT22;18974;50.838;4.636;2023-04-29T15:42:06;19.50;99.90
32536;DHT22;18974;50.838;4.636;2023-04-29T15:44:33;19.50;99.90
32536;DHT22;18974;50.838;4.636;2023-04-29T15:46:59;19.60;99.90
32536;DHT22;18974;50.838;4.636;2023-04-29T15:49:25;19.30;99.90
32536;DHT22;18974;50.838;4.636;2023-04-29T15:51:50;19.40;99.90
32536;DHT22;18974;50.838;4.636;2023-04-29T15:54:16;19.50;99.90
32536;DHT22;18974;50.838;4.636;2023-04-29T15:56:42;19.60;99.90
32536;DHT22;18974;50.838;4.636;2023-04-29T15:59:08;19.70;99.90
32536;DHT22;18974;50.838;4.636;2023-04-29T16:01:33;19.70;99.90
32536;DHT22;18974;50.838;4.636;2023-04-29T16:03:59;19.80;99.90